sensor_id;sensor_type;location;lat;lon;timestamp;temperature;humidity
50804;DHT22;37205;51.434;6.756;2024-02-16T00:01:15;13.10;1.00
50804;DHT22;37205;51.434;6.756;2024-02-16T00:03:40;13.10;99.90
50804;DHT22;37205;51.434;6.756;2024-02-16T00:06:06;13.20;1.00
50804;DHT22;37205;51.434;6.756;2024-02-16T00:08:32;13.20;99.90
50804;DHT22;37205;51.434;6.756;2024-02-16T00:11:00;13.20;1.00
50804;DHT22;37205;51.434;6.756;2024-02-16T00:13:25;13.20;1.00
50804;DHT22;37205;51.434;6.756;2024-02-16T00:15:51;13.20;99.90
50804;DHT22;37205;51.434;6.756;2024-02-16T00:18:16;13.20;99.90
50804;DHT22;37205;51.434;6.756;2024-02-16T00:20:42;13.20;89.00
50804;DHT22;37205;51.434;6.756;2024-02-16T00:23:07;13.20;99.90
50804;DHT22;37205;51.434;6.756;2024-02-16T00:25:33;13.20;99.90
50804;DHT22;37205;51.434;6.756;2024-02-16T00:27:59;13.20;1.00
50804;DHT22;37205;51.434;6.756;2024-02-16T00:30:25;13.20;99.90
50804;DHT22;37205;51.434;6.756;2024-02-16T00:32:50;13.20;1.00
50804;DHT22;37205;51.434;6.756;2024-02-16T00:35:18;13.20;99.90
50804;DHT22;37205;51.434;6.756;2024-02-16T00:37:44;13.20;96.20
50804;DHT22;37205;51.434;6.756;2024-02-16T00:40:11;13.20;99.90
50804;DHT22;37205;51.434;6.756;2024-02-16T00:42:37;13.20;1.00
50804;DHT22;37205;51.434;6.756;2024-02-16T00:45:03;13.20;1.00
50804;DHT22;37205;51.434;6.756;2024-02-16T00:47:31;13.20;99.90
50804;DHT22;37205;51.434;6.756;2024-02-16T00:49:57;13.20;99.90
50804;DHT22;37205;51.434;6.756;2024-02-16T00:52:22;13.10;99.90
50804;DHT22;37205;51.434;6.756;2024-02-16T00:54:48;13.20;99.90
50804;DHT22;37205;51.434;6.756;2024-02-16T00:57:14;13.10;1.00
50804;DHT22;37205;51.434;6.756;2024-02-16T00:59:40;13.10;99.90
50804;DHT22;37205;51.434;6.756;2024-02-16T01:02:06;13.10;1.00
50804;DHT22;37205;51.434;6.756;2024-02-16T01:04:32;13.10;1.00
50804;DHT22;37205;51.434;6.756;2024-02-16T01:06:58;13.10;97.70
50804;DHT22;37205;51.434;6.756;2024-02-16T01:09:23;13.00;99.90
50804;DHT22;37205;51.434;6.756;2024-02-16T01:11:49;13.00;99.90
50804;DHT22;37205;51.434;6.756;2024-02-16T01:14:14;13.00;99.90
50804;DHT22;37205;51.434;6.756;2024-02-16T01:16:40;13.00;19.50
50804;DHT22;37205;51.434;6.756;2024-02-16T01:19:05;13.00;1.00
50804;DHT22;37205;51.434;6.756;2024-02-16T01:21:32;13.00;99.90
50804;DHT22;37205;51.434;6.756;2024-02-16T01:23:58;13.00;56.60
50804;DHT22;37205;51.434;6.756;2024-02-16T01:26:26;13.00;1.00
50804;DHT22;37205;51.434;6.756;2024-02-16T01:28:52;13.00;99.90
50804;DHT22;37205;51.434;6.756;2024-02-16T01:31:17;13.10;1.00
50804;DHT22;37205;51.434;6.756;2024-02-16T01:33:43;13.00;99.90
50804;DHT22;37205;51.434;6.756;2024-02-16T01:36:08;13.10;99.90
50804;DHT22;37205;51.434;6.756;2024-02-16T01:38:34;13.10;99.90
50804;DHT22;37205;51.434;6.756;2024-02-16T01:41:00;13.10;99.90
50804;DHT22;37205;51.434;6.756;2024-02-16T01:43:27;13.20;1.00
50804;DHT22;37205;51.434;6.756;2024-02-16T01:45:53;13.20;1.00
50804;DHT22;37205;51.434;6.756;2024-02-16T01:48:19;13.30;99.90
50804;DHT22;37205;51.434;6.756;2024-02-16T01:50:45;13.30;1.00
50804;DHT22;37205;51.434;6.756;2024-02-16T01:53:12;13.30;39.50
50804;DHT22;37205;51.434;6.756;2024-02-16T01:55:40;13.30;1.00
50804;DHT22;37205;51.434;6.756;2024-02-16T01:58:05;13.30;99.90
50804;DHT22;37205;51.434;6.756;2024-02-16T02:00:31;13.30;79.90
50804;DHT22;37205;51.434;6.756;2024-02-16T02:02:56;13.30;99.90
50804;DHT22;37205;51.434;6.756;2024-02-16T02:05:23;13.30;99.90
50804;DHT22;37205;51.434;6.756;2024-02-16T02:07:48;13.30;20.60
50804;DHT22;37205;51.434;6.756;2024-02-16T02:10:14;13.30;1.00
50804;DHT22;37205;51.434;6.756;2024-02-16T02:12:40;13.30;1.00
50804;DHT22;37205;51.434;6.756;2024-02-16T02:15:08;13.30;99.90
50804;DHT22;37205;51.434;6.756;2024-02-16T02:17:35;13.30;1.00
50804;DHT22;37205;51.434;6.756;2024-02-16T02:20:01;13.30;1.00
50804;DHT22;37205;51.434;6.756;2024-02-16T02:22:27;13.30;99.90
50804;DHT22;37205;51.434;6.756;2024-02-16T02:24:53;13.30;1.00
50804;DHT22;37205;51.434;6.756;2024-02-16T02:27:21;13.30;99.90
50804;DHT22;37205;51.434;6.756;2024-02-16T02:29:47;13.30;1.00
50804;DHT22;37205;51.434;6.756;2024-02-16T02:32:12;13.30;99.90
50804;DHT22;37205;51.434;6.756;2024-02-16T02:34:38;13.30;99.90
50804;DHT22;37205;51.434;6.756;2024-02-16T02:37:05;13.30;99.90
50804;DHT22;37205;51.434;6.756;2024-02-16T02:39:31;13.20;1.00
50804;DHT22;37205;51.434;6.756;2024-02-16T02:41:56;13.20;99.90
50804;DHT22;37205;51.434;6.756;2024-02-16T02:44:26;13.20;1.00
50804;DHT22;37205;51.434;6.756;2024-02-16T02:46:52;13.10;1.00
50804;DHT22;37205;51.434;6.756;2024-02-16T02:49:20;13.10;1.00
50804;DHT22;37205;51.434;6.756;2024-02-16T02:51:46;13.10;74.50
50804;DHT22;37205;51.434;6.756;2024-02-16T02:54:11;13.10;22.20
50804;DHT22;37205;51.434;6.756;2024-02-16T02:56:37;13.10;99.90
50804;DHT22;37205;51.434;6.756;2024-02-16T02:59:02;13.10;1.00
50804;DHT22;37205;51.434;6.756;2024-02-16T03:01:31;13.10;99.90
50804;DHT22;37205;51.434;6.756;2024-02-16T03:03:56;13.10;1.00
50804;DHT22;37205;51.434;6.756;2024-02-16T03:06:23;13.10;99.90
50804;DHT22;37205;51.434;6.756;2024-02-16T03:08:49;13.20;1.00
50804;DHT22;37205;51.434;6.756;2024-02-16T03:11:14;13.10;99.00
50804;DHT22;37205;51.434;6.756;2024-02-16T03:13:40;13.10;99.90
50804;DHT22;37205;51.434;6.756;2024-02-16T03:16:05;13.00;99.90
50804;DHT22;37205;51.434;6.756;2024-02-16T03:18:31;13.00;99.90
50804;DHT22;37205;51.434;6.756;2024-02-16T03:20:57;13.00;29.40
50804;DHT22;37205;51.434;6.756;2024-02-16T03:23:23;13.00;99.90
50804;DHT22;37205;51.434;6.756;2024-02-16T03:25:48;13.00;1.00
50804;DHT22;37205;51.434;6.756;2024-02-16T03:28:14;13.00;99.90
50804;DHT22;37205;51.434;6.756;2024-02-16T03:30:41;13.00;40.50
50804;DHT22;37205;51.434;6.756;2024-02-16T03:33:07;13.10;99.90
50804;DHT22;37205;51.434;6.756;2024-02-16T03:35:33;13.10;99.90
50804;DHT22;37205;51.434;6.756;2024-02-16T03:37:58;13.10;1.00
50804;DHT22;37205;51.434;6.756;2024-02-16T03:40:24;13.10;99.90
50804;DHT22;37205;51.434;6.756;2024-02-16T03:42:50;13.10;99.90
50804;DHT22;37205;51.434;6.756;2024-02-16T03:45:16;13.10;7.30
50804;DHT22;37205;51.434;6.756;2024-02-16T03:47:42;13.10;1.00
50804;DHT22;37205;51.434;6.756;2024-02-16T03:50:08;13.10;1.00
50804;DHT22;37205;51.434;6.756;2024-02-16T03:52:33;13.10;99.90
50804;DHT22;37205;51.434;6.756;2024-02-16T03:54:59;13.20;99.90
50804;DHT22;37205;51.434;6.756;2024-02-16T03:57:25;13.20;99.90
50804;DHT22;37205;51.434;6.756;2024-02-16T03:59:50;13.10;5.00
50804;DHT22;37205;51.434;6.756;2024-02-16T04:02:16;13.20;1.00
50804;DHT22;37205;51.434;6.756;2024-02-16T04:04:42;13.20;1.00
50804;DHT22;37205;51.434;6.756;2024-02-16T04:07:08;13.20;1.00
50804;DHT22;37205;51.434;6.756;2024-02-16T04:09:34;13.20;1.00
50804;DHT22;37205;51.434;6.756;2024-02-16T04:12:00;13.20;99.90
50804;DHT22;37205;51.434;6.756;2024-02-16T04:14:26;13.20;99.90
50804;DHT22;37205;51.434;6.756;2024-02-16T04:16:51;13.20;1.00
50804;DHT22;37205;51.434;6.756;2024-02-16T04:19:17;13.20;99.90
50804;DHT22;37205;51.434;6.756;2024-02-16T04:21:43;13.10;1.00
50804;DHT22;37205;51.434;6.756;2024-02-16T04:24:08;13.10;1.00
50804;DHT22;37205;51.434;6.756;2024-02-16T04:26:34;13.10;1.00
50804;DHT22;37205;51.434;6.756;2024-02-16T04:28:59;13.20;1.00
50804;DHT22;37205;51.434;6.756;2024-02-16T04:31:25;13.10;99.90
50804;DHT22;37205;51.434;6.756;2024-02-16T04:33:50;13.10;1.00
50804;DHT22;37205;51.434;6.756;2024-02-16T04:36:16;13.10;99.90
50804;DHT22;37205;51.434;6.756;2024-02-16T04:38:42;13.10;1.00
50804;DHT22;37205;51.434;6.756;2024-02-16T04:41:08;13.00;99.90
50804;DHT22;37205;51.434;6.756;2024-02-16T04:43:34;12.90;1.00
50804;DHT22;37205;51.434;6.756;2024-02-16T04:46:00;12.90;99.90
50804;DHT22;37205;51.434;6.756;2024-02-16T04:48:25;12.90;99.90
50804;DHT22;37205;51.434;6.756;2024-02-16T04:50:51;12.90;99.90
50804;DHT22;37205;51.434;6.756;2024-02-16T04:53:17;12.90;1.00
50804;DHT22;37205;51.434;6.756;2024-02-16T04:55:42;12.90;99.90
50804;DHT22;37205;51.434;6.756;2024-02-16T04:58:08;12.90;99.90
50804;DHT22;37205;51.434;6.756;2024-02-16T05:00:37;12.90;1.00
50804;DHT22;37205;51.434;6.756;2024-02-16T05:03:03;12.90;99.90
50804;DHT22;37205;51.434;6.756;2024-02-16T05:05:29;12.90;99.90
50804;DHT22;37205;51.434;6.756;2024-02-16T05:07:56;12.90;1.00
50804;DHT22;37205;51.434;6.756;2024-02-16T05:10:22;12.90;1.00
50804;DHT22;37205;51.434;6.756;2024-02-16T05:12:48;13.00;1.00
50804;DHT22;37205;51.434;6.756;2024-02-16T05:15:14;12.90;1.00
50804;DHT22;37205;51.434;6.756;2024-02-16T05:17:39;12.90;1.00
50804;DHT22;37205;51.434;6.756;2024-02-16T05:20:11;12.90;1.00
50804;DHT22;37205;51.434;6.756;2024-02-16T05:22:44;12.90;34.70
50804;DHT22;37205;51.434;6.756;2024-02-16T05:25:11;12.90;59.00
50804;DHT22;37205;51.434;6.756;2024-02-16T05:27:37;12.80;99.90
50804;DHT22;37205;51.434;6.756;2024-02-16T05:30:03;12.80;99.90
50804;DHT22;37205;51.434;6.756;2024-02-16T05:32:29;12.80;99.90
50804;DHT22;37205;51.434;6.756;2024-02-16T05:34:55;12.70;99.90
50804;DHT22;37205;51.434;6.756;2024-02-16T05:37:20;12.70;99.90
50804;DHT22;37205;51.434;6.756;2024-02-16T05:39:47;12.70;99.90
50804;DHT22;37205;51.434;6.756;2024-02-16T05:42:20;12.70;99.90
50804;DHT22;37205;51.434;6.756;2024-02-16T05:44:47;12.70;99.90
50804;DHT22;37205;51.434;6.756;2024-02-16T05:47:15;12.70;99.90
50804;DHT22;37205;51.434;6.756;2024-02-16T05:49:40;12.70;99.90
50804;DHT22;37205;51.434;6.756;2024-02-16T05:52:06;12.60;99.90
50804;DHT22;37205;51.434;6.756;2024-02-16T05:54:52;12.60;99.90
50804;DHT22;37205;51.434;6.756;2024-02-16T05:57:18;12.60;99.90
50804;DHT22;37205;51.434;6.756;2024-02-16T05:59:43;12.60;99.90
50804;DHT22;37205;51.434;6.756;2024-02-16T06:02:10;12.60;1.00
50804;DHT22;37205;51.434;6.756;2024-02-16T06:04:36;12.60;1.00
50804;DHT22;37205;51.434;6.756;2024-02-16T06:07:02;12.60;1.00
50804;DHT22;37205;51.434;6.756;2024-02-16T06:09:28;12.60;1.00
50804;DHT22;37205;51.434;6.756;2024-02-16T06:12:03;12.70;1.00
50804;DHT22;37205;51.434;6.756;2024-02-16T06:14:30;12.70;1.00
50804;DHT22;37205;51.434;6.756;2024-02-16T06:17:01;12.70;1.00
50804;DHT22;37205;51.434;6.756;2024-02-16T06:19:27;12.70;1.00
50804;DHT22;37205;51.434;6.756;2024-02-16T06:21:53;12.80;1.00
50804;DHT22;37205;51.434;6.756;2024-02-16T06:24:25;12.80;99.90
50804;DHT22;37205;51.434;6.756;2024-02-16T06:26:50;12.80;99.90
50804;DHT22;37205;51.434;6.756;2024-02-16T06:29:17;12.80;99.90
50804;DHT22;37205;51.434;6.756;2024-02-16T06:31:47;12.80;99.90
50804;DHT22;37205;51.434;6.756;2024-02-16T06:34:14;12.80;99.90
50804;DHT22;37205;51.434;6.756;2024-02-16T06:36:39;12.90;99.90
50804;DHT22;37205;51.434;6.756;2024-02-16T06:39:05;12.90;99.90
50804;DHT22;37205;51.434;6.756;2024-02-16T06:41:31;12.90;99.90
50804;DHT22;37205;51.434;6.756;2024-02-16T06:43:56;12.90;99.90
50804;DHT22;37205;51.434;6.756;2024-02-16T06:46:22;12.80;99.90
50804;DHT22;37205;51.434;6.756;2024-02-16T06:48:47;12.90;99.90
50804;DHT22;37205;51.434;6.756;2024-02-16T06:51:13;12.90;99.90
50804;DHT22;37205;51.434;6.756;2024-02-16T06:53:39;12.90;99.90
50804;DHT22;37205;51.434;6.756;2024-02-16T06:56:04;12.90;99.90
50804;DHT22;37205;51.434;6.756;2024-02-16T06:58:30;12.90;1.00
50804;DHT22;37205;51.434;6.756;2024-02-16T07:00:56;13.10;1.00
50804;DHT22;37205;51.434;6.756;2024-02-16T07:03:23;13.10;1.00
50804;DHT22;37205;51.434;6.756;2024-02-16T07:05:49;13.20;1.00
50804;DHT22;37205;51.434;6.756;2024-02-16T07:08:15;13.30;1.00
50804;DHT22;37205;51.434;6.756;2024-02-16T07:10:40;13.40;99.90
50804;DHT22;37205;51.434;6.756;2024-02-16T07:13:06;13.50;99.90
50804;DHT22;37205;51.434;6.756;2024-02-16T07:15:31;13.50;99.90
50804;DHT22;37205;51.434;6.756;2024-02-16T07:17:57;13.60;99.90
50804;DHT22;37205;51.434;6.756;2024-02-16T07:20:23;13.60;99.90
50804;DHT22;37205;51.434;6.756;2024-02-16T07:22:48;13.60;99.90
50804;DHT22;37205;51.434;6.756;2024-02-16T07:25:19;13.60;1.00
50804;DHT22;37205;51.434;6.756;2024-02-16T07:27:44;13.50;1.00
50804;DHT22;37205;51.434;6.756;2024-02-16T07:30:10;13.50;1.00
50804;DHT22;37205;51.434;6.756;2024-02-16T07:32:39;13.40;1.00
50804;DHT22;37205;51.434;6.756;2024-02-16T07:35:05;13.40;1.00
50804;DHT22;37205;51.434;6.756;2024-02-16T07:37:31;13.40;1.00
50804;DHT22;37205;51.434;6.756;2024-02-16T07:39:56;13.40;1.00
50804;DHT22;37205;51.434;6.756;2024-02-16T07:42:22;13.40;1.00
50804;DHT22;37205;51.434;6.756;2024-02-16T07:44:47;13.40;99.90
50804;DHT22;37205;51.434;6.756;2024-02-16T07:47:13;13.40;12.20
50804;DHT22;37205;51.434;6.756;2024-02-16T07:49:39;13.40;66.00
50804;DHT22;37205;51.434;6.756;2024-02-16T07:52:07;13.40;46.60
50804;DHT22;37205;51.434;6.756;2024-02-16T07:54:34;13.40;1.00
50804;DHT22;37205;51.434;6.756;2024-02-16T07:56:59;13.50;1.00
50804;DHT22;37205;51.434;6.756;2024-02-16T07:59:25;13.60;1.00
50804;DHT22;37205;51.434;6.756;2024-02-16T08:01:51;13.60;1.00
50804;DHT22;37205;51.434;6.756;2024-02-16T08:04:16;13.60;99.90
50804;DHT22;37205;51.434;6.756;2024-02-16T08:06:42;13.70;99.90
50804;DHT22;37205;51.434;6.756;2024-02-16T08:09:07;13.70;99.90
50804;DHT22;37205;51.434;6.756;2024-02-16T08:11:33;13.70;1.00
50804;DHT22;37205;51.434;6.756;2024-02-16T08:13:59;13.80;99.90
50804;DHT22;37205;51.434;6.756;2024-02-16T08:16:26;13.80;99.90
50804;DHT22;37205;51.434;6.756;2024-02-16T08:18:55;13.90;99.90
50804;DHT22;37205;51.434;6.756;2024-02-16T08:21:21;13.90;99.90
50804;DHT22;37205;51.434;6.756;2024-02-16T08:23:46;13.90;99.90
50804;DHT22;37205;51.434;6.756;2024-02-16T08:26:12;14.00;1.00
50804;DHT22;37205;51.434;6.756;2024-02-16T08:28:38;14.00;99.90
50804;DHT22;37205;51.434;6.756;2024-02-16T08:31:05;14.10;1.00
50804;DHT22;37205;51.434;6.756;2024-02-16T08:33:30;14.20;98.20
50804;DHT22;37205;51.434;6.756;2024-02-16T08:35:57;14.20;5.90
50804;DHT22;37205;51.434;6.756;2024-02-16T08:38:22;14.20;99.90
50804;DHT22;37205;51.434;6.756;2024-02-16T08:40:48;14.30;99.90
50804;DHT22;37205;51.434;6.756;2024-02-16T08:43:16;14.40;1.00
50804;DHT22;37205;51.434;6.756;2024-02-16T08:45:42;14.40;74.00
50804;DHT22;37205;51.434;6.756;2024-02-16T08:48:08;14.50;99.90
50804;DHT22;37205;51.434;6.756;2024-02-16T08:50:33;14.50;72.70
50804;DHT22;37205;51.434;6.756;2024-02-16T08:52:59;14.50;99.90
50804;DHT22;37205;51.434;6.756;2024-02-16T08:55:24;14.50;1.00
50804;DHT22;37205;51.434;6.756;2024-02-16T08:57:50;14.50;99.90
50804;DHT22;37205;51.434;6.756;2024-02-16T09:00:15;14.60;1.00
50804;DHT22;37205;51.434;6.756;2024-02-16T09:02:42;14.60;99.90
50804;DHT22;37205;51.434;6.756;2024-02-16T09:05:07;14.60;99.90
50804;DHT22;37205;51.434;6.756;2024-02-16T09:07:37;14.60;1.00
50804;DHT22;37205;51.434;6.756;2024-02-16T09:10:03;14.70;1.00
50804;DHT22;37205;51.434;6.756;2024-02-16T09:12:29;14.70;1.00
50804;DHT22;37205;51.434;6.756;2024-02-16T09:14:55;14.70;99.90
50804;DHT22;37205;51.434;6.756;2024-02-16T09:17:20;14.70;8.40
50804;DHT22;37205;51.434;6.756;2024-02-16T09:19:46;14.80;99.90
50804;DHT22;37205;51.434;6.756;2024-02-16T09:22:12;14.80;1.00
50804;DHT22;37205;51.434;6.756;2024-02-16T09:24:37;14.80;1.00
50804;DHT22;37205;51.434;6.756;2024-02-16T09:27:03;14.80;99.90
50804;DHT22;37205;51.434;6.756;2024-02-16T09:29:30;14.90;99.90
50804;DHT22;37205;51.434;6.756;2024-02-16T09:31:55;14.90;1.00
50804;DHT22;37205;51.434;6.756;2024-02-16T09:34:21;15.00;99.90
50804;DHT22;37205;51.434;6.756;2024-02-16T09:36:46;15.00;99.90
50804;DHT22;37205;51.434;6.756;2024-02-16T09:39:12;15.10;1.00
50804;DHT22;37205;51.434;6.756;2024-02-16T09:41:41;15.10;1.00
50804;DHT22;37205;51.434;6.756;2024-02-16T09:44:07;15.20;1.00
50804;DHT22;37205;51.434;6.756;2024-02-16T09:46:33;15.10;99.90
50804;DHT22;37205;51.434;6.756;2024-02-16T09:49:02;15.20;99.90
50804;DHT22;37205;51.434;6.756;2024-02-16T09:51:29;15.30;1.00
50804;DHT22;37205;51.434;6.756;2024-02-16T09:53:54;15.40;54.60
50804;DHT22;37205;51.434;6.756;2024-02-16T09:56:25;15.40;1.00
50804;DHT22;37205;51.434;6.756;2024-02-16T09:58:51;15.50;1.00
50804;DHT22;37205;51.434;6.756;2024-02-16T10:01:21;15.50;99.90
50804;DHT22;37205;51.434;6.756;2024-02-16T10:03:47;15.50;99.90
50804;DHT22;37205;51.434;6.756;2024-02-16T10:06:13;15.50;1.00
50804;DHT22;37205;51.434;6.756;2024-02-16T10:08:54;15.50;99.90
50804;DHT22;37205;51.434;6.756;2024-02-16T10:11:21;15.50;99.90
50804;DHT22;37205;51.434;6.756;2024-02-16T10:14:03;15.60;99.90
50804;DHT22;37205;51.434;6.756;2024-02-16T10:16:30;15.60;1.00
50804;DHT22;37205;51.434;6.756;2024-02-16T10:18:57;15.50;99.90
50804;DHT22;37205;51.434;6.756;2024-02-16T10:21:28;15.50;1.00
50804;DHT22;37205;51.434;6.756;2024-02-16T10:23:59;15.50;99.90
50804;DHT22;37205;51.434;6.756;2024-02-16T10:26:25;15.50;1.00
50804;DHT22;37205;51.434;6.756;2024-02-16T10:28:55;15.60;99.90
50804;DHT22;37205;51.434;6.756;2024-02-16T10:31:25;15.60;99.90
50804;DHT22;37205;51.434;6.756;2024-02-16T10:33:59;15.70;99.90
50804;DHT22;37205;51.434;6.756;2024-02-16T10:36:25;15.70;99.90
50804;DHT22;37205;51.434;6.756;2024-02-16T10:38:54;15.80;1.00
50804;DHT22;37205;51.434;6.756;2024-02-16T10:41:26;15.80;10.20
50804;DHT22;37205;51.434;6.756;2024-02-16T10:43:56;15.80;99.90
50804;DHT22;37205;51.434;6.756;2024-02-16T10:46:25;15.80;99.90
50804;DHT22;37205;51.434;6.756;2024-02-16T10:48:50;15.80;91.30
50804;DHT22;37205;51.434;6.756;2024-02-16T10:51:23;15.70;1.00
50804;DHT22;37205;51.434;6.756;2024-02-16T10:53:51;15.70;1.00
50804;DHT22;37205;51.434;6.756;2024-02-16T10:56:35;15.70;1.00
50804;DHT22;37205;51.434;6.756;2024-02-16T10:59:06;15.70;1.00
50804;DHT22;37205;51.434;6.756;2024-02-16T11:01:39;15.70;1.00
50804;DHT22;37205;51.434;6.756;2024-02-16T11:04:06;15.70;99.90
50804;DHT22;37205;51.434;6.756;2024-02-16T11:06:54;15.60;1.00
50804;DHT22;37205;51.434;6.756;2024-02-16T11:09:28;15.60;99.90
50804;DHT22;37205;51.434;6.756;2024-02-16T11:11:58;15.60;1.00
50804;DHT22;37205;51.434;6.756;2024-02-16T11:14:23;15.50;1.00
50804;DHT22;37205;51.434;6.756;2024-02-16T11:16:53;15.60;1.00
50804;DHT22;37205;51.434;6.756;2024-02-16T11:19:21;15.50;99.90
50804;DHT22;37205;51.434;6.756;2024-02-16T11:21:59;15.50;99.90
50804;DHT22;37205;51.434;6.756;2024-02-16T11:24:33;15.40;99.90
50804;DHT22;37205;51.434;6.756;2024-02-16T11:27:05;15.40;99.90
50804;DHT22;37205;51.434;6.756;2024-02-16T11:29:35;15.50;99.90
50804;DHT22;37205;51.434;6.756;2024-02-16T11:32:02;15.40;1.00
50804;DHT22;37205;51.434;6.756;2024-02-16T11:34:28;15.40;99.90
50804;DHT22;37205;51.434;6.756;2024-02-16T11:36:58;15.40;1.00
50804;DHT22;37205;51.434;6.756;2024-02-16T11:39:24;15.40;1.00
50804;DHT22;37205;51.434;6.756;2024-02-16T11:42:18;15.40;1.00
50804;DHT22;37205;51.434;6.756;2024-02-16T11:44:52;15.30;1.00
50804;DHT22;37205;51.434;6.756;2024-02-16T11:47:23;15.40;1.00
50804;DHT22;37205;51.434;6.756;2024-02-16T11:50:04;15.40;1.00
50804;DHT22;37205;51.434;6.756;2024-02-16T11:52:31;15.40;1.00
50804;DHT22;37205;51.434;6.756;2024-02-16T11:54:57;15.40;4.20
50804;DHT22;37205;51.434;6.756;2024-02-16T11:57:26;15.40;75.00
50804;DHT22;37205;51.434;6.756;2024-02-16T11:59:53;15.40;18.00
50804;DHT22;37205;51.434;6.756;2024-02-16T12:02:20;15.40;99.90
50804;DHT22;37205;51.434;6.756;2024-02-16T12:04:46;15.40;99.90
50804;DHT22;37205;51.434;6.756;2024-02-16T12:07:12;15.40;99.90
50804;DHT22;37205;51.434;6.756;2024-02-16T12:09:39;15.40;99.90
50804;DHT22;37205;51.434;6.756;2024-02-16T12:12:05;15.30;99.90
50804;DHT22;37205;51.434;6.756;2024-02-16T12:14:31;15.40;99.90
50804;DHT22;37205;51.434;6.756;2024-02-16T12:16:57;15.30;99.90
50804;DHT22;37205;51.434;6.756;2024-02-16T12:19:24;15.30;99.90
50804;DHT22;37205;51.434;6.756;2024-02-16T12:21:53;15.30;99.90
50804;DHT22;37205;51.434;6.756;2024-02-16T12:24:19;15.30;99.90
50804;DHT22;37205;51.434;6.756;2024-02-16T12:26:45;15.30;99.90
50804;DHT22;37205;51.434;6.756;2024-02-16T12:29:14;15.30;99.90
50804;DHT22;37205;51.434;6.756;2024-02-16T12:31:40;15.30;99.90
50804;DHT22;37205;51.434;6.756;2024-02-16T12:34:07;15.20;99.90
50804;DHT22;37205;51.434;6.756;2024-02-16T12:36:39;15.20;99.90
50804;DHT22;37205;51.434;6.756;2024-02-16T12:39:08;15.20;1.00
50804;DHT22;37205;51.434;6.756;2024-02-16T12:41:38;15.20;1.00
50804;DHT22;37205;51.434;6.756;2024-02-16T12:44:04;15.10;1.00
50804;DHT22;37205;51.434;6.756;2024-02-16T12:46:31;15.10;1.00
50804;DHT22;37205;51.434;6.756;2024-02-16T12:48:57;15.10;1.00
50804;DHT22;37205;51.434;6.756;2024-02-16T12:51:22;15.10;1.00
50804;DHT22;37205;51.434;6.756;2024-02-16T12:53:48;15.10;1.00
50804;DHT22;37205;51.434;6.756;2024-02-16T12:56:14;15.10;1.00
50804;DHT22;37205;51.434;6.756;2024-02-16T12:58:39;15.00;1.00
50804;DHT22;37205;51.434;6.756;2024-02-16T13:01:05;15.00;1.00
50804;DHT22;37205;51.434;6.756;2024-02-16T13:03:36;15.00;1.00
50804;DHT22;37205;51.434;6.756;2024-02-16T13:06:03;15.00;1.00
50804;DHT22;37205;51.434;6.756;2024-02-16T13:08:29;15.00;1.00
50804;DHT22;37205;51.434;6.756;2024-02-16T13:10:55;15.00;1.00
50804;DHT22;37205;51.434;6.756;2024-02-16T13:13:21;14.90;1.00
50804;DHT22;37205;51.434;6.756;2024-02-16T13:15:47;14.90;1.00
50804;DHT22;37205;51.434;6.756;2024-02-16T13:18:15;15.00;1.00
50804;DHT22;37205;51.434;6.756;2024-02-16T13:20:41;14.90;1.00
50804;DHT22;37205;51.434;6.756;2024-02-16T13:23:07;14.90;1.00
50804;DHT22;37205;51.434;6.756;2024-02-16T13:25:33;14.80;1.00
50804;DHT22;37205;51.434;6.756;2024-02-16T13:27:58;14.80;1.00
50804;DHT22;37205;51.434;6.756;2024-02-16T13:30:25;14.80;1.00
50804;DHT22;37205;51.434;6.756;2024-02-16T13:32:50;14.80;1.00
50804;DHT22;37205;51.434;6.756;2024-02-16T13:35:16;14.70;1.00
50804;DHT22;37205;51.434;6.756;2024-02-16T13:37:41;14.60;1.00
50804;DHT22;37205;51.434;6.756;2024-02-16T13:40:07;14.60;24.10
50804;DHT22;37205;51.434;6.756;2024-02-16T13:42:40;14.50;41.90
50804;DHT22;37205;51.434;6.756;2024-02-16T13:45:07;14.40;70.10
50804;DHT22;37205;51.434;6.756;2024-02-16T13:47:33;14.30;89.60
50804;DHT22;37205;51.434;6.756;2024-02-16T13:49:58;14.30;96.60
50804;DHT22;37205;51.434;6.756;2024-02-16T13:52:25;14.20;99.10
50804;DHT22;37205;51.434;6.756;2024-02-16T13:54:51;14.20;99.90
50804;DHT22;37205;51.434;6.756;2024-02-16T13:57:17;14.10;99.90
50804;DHT22;37205;51.434;6.756;2024-02-16T13:59:46;14.10;99.90
50804;DHT22;37205;51.434;6.756;2024-02-16T14:02:12;14.10;99.90
50804;DHT22;37205;51.434;6.756;2024-02-16T14:04:38;14.10;99.90
50804;DHT22;37205;51.434;6.756;2024-02-16T14:07:06;14.00;99.90
50804;DHT22;37205;51.434;6.756;2024-02-16T14:09:32;14.00;99.90
50804;DHT22;37205;51.434;6.756;2024-02-16T14:11:58;13.80;99.90
50804;DHT22;37205;51.434;6.756;2024-02-16T14:14:27;13.90;99.90
50804;DHT22;37205;51.434;6.756;2024-02-16T14:16:52;13.80;99.90
50804;DHT22;37205;51.434;6.756;2024-02-16T14:19:18;13.70;99.90
50804;DHT22;37205;51.434;6.756;2024-02-16T14:21:44;13.70;99.90
50804;DHT22;37205;51.434;6.756;2024-02-16T14:24:09;13.60;99.90
50804;DHT22;37205;51.434;6.756;2024-02-16T14:26:36;13.70;99.90
50804;DHT22;37205;51.434;6.756;2024-02-16T14:29:02;13.60;99.90
50804;DHT22;37205;51.434;6.756;2024-02-16T14:31:27;13.70;99.90
50804;DHT22;37205;51.434;6.756;2024-02-16T14:33:53;13.60;99.90
50804;DHT22;37205;51.434;6.756;2024-02-16T14:36:19;13.60;99.90
50804;DHT22;37205;51.434;6.756;2024-02-16T14:38:44;13.60;99.90
50804;DHT22;37205;51.434;6.756;2024-02-16T14:41:10;13.60;99.90
50804;DHT22;37205;51.434;6.756;2024-02-16T14:43:35;13.60;99.90
50804;DHT22;37205;51.434;6.756;2024-02-16T14:46:01;13.50;99.90
50804;DHT22;37205;51.434;6.756;2024-02-16T14:48:29;13.50;99.90
50804;DHT22;37205;51.434;6.756;2024-02-16T14:50:54;13.50;99.90
50804;DHT22;37205;51.434;6.756;2024-02-16T14:53:20;13.50;99.90
50804;DHT22;37205;51.434;6.756;2024-02-16T14:55:49;13.50;99.90
50804;DHT22;37205;51.434;6.756;2024-02-16T14:58:16;13.50;99.90
50804;DHT22;37205;51.434;6.756;2024-02-16T15:00:42;13.50;99.90
50804;DHT22;37205;51.434;6.756;2024-02-16T15:03:16;13.50;99.90
50804;DHT22;37205;51.434;6.756;2024-02-16T15:05:44;13.40;99.90
50804;DHT22;37205;51.434;6.756;2024-02-16T15:08:09;13.40;99.90
50804;DHT22;37205;51.434;6.756;2024-02-16T15:10:35;13.40;99.90
50804;DHT22;37205;51.434;6.756;2024-02-16T15:13:00;13.40;99.90
50804;DHT22;37205;51.434;6.756;2024-02-16T15:15:26;13.50;99.90
50804;DHT22;37205;51.434;6.756;2024-02-16T15:17:51;13.50;99.90
50804;DHT22;37205;51.434;6.756;2024-02-16T15:20:17;13.50;99.90
50804;DHT22;37205;51.434;6.756;2024-02-16T15:22:42;13.40;99.90
50804;DHT22;37205;51.434;6.756;2024-02-16T15:25:08;13.40;99.90
50804;DHT22;37205;51.434;6.756;2024-02-16T15:27:34;13.40;99.90
50804;DHT22;37205;51.434;6.756;2024-02-16T15:30:01;13.40;99.90
50804;DHT22;37205;51.434;6.756;2024-02-16T15:32:27;13.40;99.90
50804;DHT22;37205;51.434;6.756;2024-02-16T15:34:53;13.50;99.90